sensor_id;sensor_type;location;lat;lon;timestamp;pressure;altitude;pressure_sealevel;temperature;humidity
4767;BME280;2397;53.576;9.746;2023-02-28T00:00:19;103135.34;;;2.69;100.00
4767;BME280;2397;53.576;9.746;2023-02-28T00:02:46;103144.16;;;2.62;100.00
4767;BME280;2397;53.576;9.746;2023-02-28T00:05:15;103144.56;;;2.56;100.00
4767;BME280;2397;53.576;9.746;2023-02-28T00:07:42;103144.56;;;2.56;100.00
4767;BME280;2397;53.576;9.746;2023-02-28T00:10:11;103137.25;;;2.61;100.00
4767;BME280;2397;53.576;9.746;2023-02-28T00:12:38;103141.06;;;2.56;100.00
4767;BME280;2397;53.576;9.746;2023-02-28T00:15:06;103139.56;;;2.48;100.00
4767;BME280;2397;53.576;9.746;2023-02-28T00:17:32;103138.25;;;2.53;100.00
4767;BME280;2397;53.576;9.746;2023-02-28T00:19:59;103139.69;;;2.59;100.00
4767;BME280;2397;53.576;9.746;2023-02-28T00:22:28;103150.69;;;2.58;100.00
4767;BME280;2397;53.576;9.746;2023-02-28T00:24:54;103146.06;;;2.64;100.00
4767;BME280;2397;53.576;9.746;2023-02-28T00:27:21;103141.88;;;2.55;100.00
4767;BME280;2397;53.576;9.746;2023-02-28T00:29:47;103148.84;;;2.47;100.00
4767;BME280;2397;53.576;9.746;2023-02-28T00:32:14;103157.31;;;2.46;100.00
4767;BME280;2397;53.576;9.746;2023-02-28T00:34:40;103150.91;;;2.51;100.00
4767;BME280;2397;53.576;9.746;2023-02-28T00:37:07;103140.06;;;2.54;100.00
4767;BME280;2397;53.576;9.746;2023-02-28T00:39:36;103139.81;;;2.61;100.00
4767;BME280;2397;53.576;9.746;2023-02-28T00:42:03;103149.94;;;2.70;100.00
4767;BME280;2397;53.576;9.746;2023-02-28T00:44:30;103151.56;;;2.69;100.00
4767;BME280;2397;53.576;9.746;2023-02-28T00:46:57;103151.69;;;2.60;100.00
4767;BME280;2397;53.576;9.746;2023-02-28T00:49:25;103153.22;;;2.58;100.00
4767;BME280;2397;53.576;9.746;2023-02-28T00:51:52;103152.84;;;2.54;100.00
4767;BME280;2397;53.576;9.746;2023-02-28T00:54:19;103151.94;;;2.43;100.00
4767;BME280;2397;53.576;9.746;2023-02-28T00:56:46;103156.63;;;2.38;100.00
4767;BME280;2397;53.576;9.746;2023-02-28T00:59:14;103156.28;;;2.44;100.00
4767;BME280;2397;53.576;9.746;2023-02-28T01:01:42;103158.34;;;2.48;100.00
4767;BME280;2397;53.576;9.746;2023-02-28T01:04:09;103162.31;;;2.44;100.00
4767;BME280;2397;53.576;9.746;2023-02-28T01:06:36;103160.63;;;2.45;100.00
4767;BME280;2397;53.576;9.746;2023-02-28T01:09:04;103159.22;;;2.49;100.00
4767;BME280;2397;53.576;9.746;2023-02-28T01:11:31;103151.28;;;2.45;100.00
4767;BME280;2397;53.576;9.746;2023-02-28T01:13:59;103153.84;;;2.45;100.00
4767;BME280;2397;53.576;9.746;2023-02-28T01:16:26;103156.81;;;2.40;100.00
4767;BME280;2397;53.576;9.746;2023-02-28T01:18:52;103155.34;;;2.23;100.00
4767;BME280;2397;53.576;9.746;2023-02-28T01:21:20;103157.53;;;2.28;100.00
4767;BME280;2397;53.576;9.746;2023-02-28T01:23:48;103159.84;;;2.36;100.00
4767;BME280;2397;53.576;9.746;2023-02-28T01:26:16;103152.03;;;2.24;100.00
4767;BME280;2397;53.576;9.746;2023-02-28T01:28:43;103153.75;;;2.15;100.00
4767;BME280;2397;53.576;9.746;2023-02-28T01:31:09;103154.03;;;2.07;100.00
4767;BME280;2397;53.576;9.746;2023-02-28T01:33:37;103166.13;;;2.10;100.00
4767;BME280;2397;53.576;9.746;2023-02-28T01:36:07;103152.97;;;2.05;100.00
4767;BME280;2397;53.576;9.746;2023-02-28T01:38:35;103153.59;;;2.03;100.00
4767;BME280;2397;53.576;9.746;2023-02-28T01:41:02;103145.53;;;1.98;100.00
4767;BME280;2397;53.576;9.746;2023-02-28T01:43:32;103148.47;;;2.03;100.00
4767;BME280;2397;53.576;9.746;2023-02-28T01:45:59;103150.94;;;2.11;100.00
4767;BME280;2397;53.576;9.746;2023-02-28T01:48:28;103154.69;;;2.15;100.00
4767;BME280;2397;53.576;9.746;2023-02-28T01:50:58;103157.38;;;2.17;100.00
4767;BME280;2397;53.576;9.746;2023-02-28T01:53:34;103150.41;;;2.05;100.00
4767;BME280;2397;53.576;9.746;2023-02-28T01:56:05;103146.19;;;1.96;100.00
4767;BME280;2397;53.576;9.746;2023-02-28T01:58:34;103139.63;;;1.89;100.00
4767;BME280;2397;53.576;9.746;2023-02-28T02:01:01;103142.59;;;1.93;100.00
4767;BME280;2397;53.576;9.746;2023-02-28T02:03:30;103143.59;;;1.85;100.00
4767;BME280;2397;53.576;9.746;2023-02-28T02:05:57;103136.06;;;1.87;100.00
4767;BME280;2397;53.576;9.746;2023-02-28T02:08:26;103145.91;;;1.92;100.00
4767;BME280;2397;53.576;9.746;2023-02-28T02:10:56;103144.78;;;1.99;100.00
4767;BME280;2397;53.576;9.746;2023-02-28T02:13:41;103143.25;;;2.01;100.00
4767;BME280;2397;53.576;9.746;2023-02-28T02:16:25;103144.38;;;1.95;100.00
4767;BME280;2397;53.576;9.746;2023-02-28T02:35:38;103141.22;;;1.97;100.00
4767;BME280;2397;53.576;9.746;2023-02-28T02:41:04;103132.72;;;1.88;100.00
4767;BME280;2397;53.576;9.746;2023-02-28T02:46:29;103134.69;;;1.71;100.00
4767;BME280;2397;53.576;9.746;2023-02-28T02:49:00;103131.38;;;1.72;100.00
4767;BME280;2397;53.576;9.746;2023-02-28T02:51:30;103130.13;;;1.78;100.00
4767;BME280;2397;53.576;9.746;2023-02-28T02:54:08;103132.19;;;1.82;100.00
4767;BME280;2397;53.576;9.746;2023-02-28T02:56:39;103132.31;;;1.83;100.00
4767;BME280;2397;53.576;9.746;2023-02-28T02:59:09;103130.00;;;1.76;100.00
4767;BME280;2397;53.576;9.746;2023-02-28T03:01:38;103134.22;;;1.75;100.00
4767;BME280;2397;53.576;9.746;2023-02-28T03:04:10;103136.75;;;1.75;100.00
4767;BME280;2397;53.576;9.746;2023-02-28T03:06:37;103129.84;;;1.74;100.00
4767;BME280;2397;53.576;9.746;2023-02-28T03:09:04;103139.06;;;1.72;100.00
4767;BME280;2397;53.576;9.746;2023-02-28T03:11:31;103134.03;;;1.64;100.00
4767;BME280;2397;53.576;9.746;2023-02-28T03:14:21;103131.22;;;1.61;100.00
4767;BME280;2397;53.576;9.746;2023-02-28T03:20:10;103153.31;;;1.60;100.00
4767;BME280;2397;53.576;9.746;2023-02-28T03:23:03;103140.41;;;1.58;100.00
4767;BME280;2397;53.576;9.746;2023-02-28T03:25:56;103146.31;;;1.49;100.00
4767;BME280;2397;53.576;9.746;2023-02-28T03:31:16;103146.59;;;1.52;100.00
4767;BME280;2397;53.576;9.746;2023-02-28T03:33:50;103146.59;;;1.52;100.00
4767;BME280;2397;53.576;9.746;2023-02-28T03:36:27;103152.97;;;1.47;100.00
4767;BME280;2397;53.576;9.746;2023-02-28T03:38:57;103162.97;;;1.35;100.00
4767;BME280;2397;53.576;9.746;2023-02-28T03:41:33;103151.56;;;1.31;100.00
4767;BME280;2397;53.576;9.746;2023-02-28T03:44:25;103148.13;;;1.31;100.00
4767;BME280;2397;53.576;9.746;2023-02-28T03:47:00;103148.75;;;1.28;100.00
4767;BME280;2397;53.576;9.746;2023-02-28T03:52:25;103158.06;;;1.09;100.00
4767;BME280;2397;53.576;9.746;2023-02-28T03:54:56;103160.94;;;1.03;100.00
4767;BME280;2397;53.576;9.746;2023-02-28T03:57:55;103154.09;;;0.93;100.00
4767;BME280;2397;53.576;9.746;2023-02-28T04:00:35;103148.47;;;0.78;100.00
4767;BME280;2397;53.576;9.746;2023-02-28T04:03:03;103152.88;;;0.70;100.00
4767;BME280;2397;53.576;9.746;2023-02-28T04:05:31;103151.91;;;0.60;100.00
4767;BME280;2397;53.576;9.746;2023-02-28T04:08:05;103156.28;;;0.52;100.00
4767;BME280;2397;53.576;9.746;2023-02-28T04:10:32;103154.22;;;0.48;100.00
4767;BME280;2397;53.576;9.746;2023-02-28T04:12:58;103156.94;;;0.41;100.00
4767;BME280;2397;53.576;9.746;2023-02-28T04:15:25;103157.28;;;0.26;100.00
4767;BME280;2397;53.576;9.746;2023-02-28T04:17:53;103159.41;;;0.22;100.00
4767;BME280;2397;53.576;9.746;2023-02-28T04:20:19;103161.50;;;0.17;100.00
4767;BME280;2397;53.576;9.746;2023-02-28T04:22:46;103157.00;;;0.14;100.00
4767;BME280;2397;53.576;9.746;2023-02-28T04:25:12;103158.84;;;0.07;100.00
4767;BME280;2397;53.576;9.746;2023-02-28T04:27:38;103166.78;;;0.10;100.00
4767;BME280;2397;53.576;9.746;2023-02-28T04:30:05;103161.81;;;0.11;100.00
4767;BME280;2397;53.576;9.746;2023-02-28T04:32:32;103171.13;;;0.11;100.00
4767;BME280;2397;53.576;9.746;2023-02-28T04:34:59;103169.31;;;0.10;100.00
4767;BME280;2397;53.576;9.746;2023-02-28T04:37:25;103160.78;;;0.09;100.00
4767;BME280;2397;53.576;9.746;2023-02-28T04:39:54;103167.50;;;0.09;100.00
4767;BME280;2397;53.576;9.746;2023-02-28T04:42:21;103164.22;;;0.10;100.00
4767;BME280;2397;53.576;9.746;2023-02-28T04:44:47;103164.53;;;0.04;100.00
4767;BME280;2397;53.576;9.746;2023-02-28T04:47:13;103169.78;;;0.06;100.00
4767;BME280;2397;53.576;9.746;2023-02-28T04:49:40;103163.78;;;0.05;100.00
4767;BME280;2397;53.576;9.746;2023-02-28T04:52:07;103173.53;;;0.01;100.00
4767;BME280;2397;53.576;9.746;2023-02-28T04:54:34;103169.34;;;-0.08;100.00
4767;BME280;2397;53.576;9.746;2023-02-28T04:57:00;103173.88;;;-0.14;100.00
4767;BME280;2397;53.576;9.746;2023-02-28T04:59:27;103174.75;;;-0.13;100.00
4767;BME280;2397;53.576;9.746;2023-02-28T05:01:54;103179.84;;;-0.13;100.00
4767;BME280;2397;53.576;9.746;2023-02-28T05:04:20;103176.25;;;-0.15;100.00
4767;BME280;2397;53.576;9.746;2023-02-28T05:06:47;103178.50;;;-0.19;100.00
4767;BME280;2397;53.576;9.746;2023-02-28T05:09:13;103177.19;;;-0.32;100.00
4767;BME280;2397;53.576;9.746;2023-02-28T05:11:40;103177.34;;;-0.40;100.00
4767;BME280;2397;53.576;9.746;2023-02-28T05:14:12;103179.88;;;-0.40;100.00
4767;BME280;2397;53.576;9.746;2023-02-28T05:16:38;103180.47;;;-0.51;100.00
4767;BME280;2397;53.576;9.746;2023-02-28T05:19:05;103186.50;;;-0.59;100.00
4767;BME280;2397;53.576;9.746;2023-02-28T05:24:03;103183.44;;;-0.73;100.00
4767;BME280;2397;53.576;9.746;2023-02-28T05:26:30;103180.91;;;-0.73;100.00
4767;BME280;2397;53.576;9.746;2023-02-28T05:28:57;103190.50;;;-0.70;100.00
4767;BME280;2397;53.576;9.746;2023-02-28T05:31:23;103193.97;;;-0.69;100.00
4767;BME280;2397;53.576;9.746;2023-02-28T05:33:50;103196.66;;;-0.68;100.00
4767;BME280;2397;53.576;9.746;2023-02-28T05:36:17;103194.84;;;-0.78;100.00
4767;BME280;2397;53.576;9.746;2023-02-28T05:38:48;103192.13;;;-0.79;100.00
4767;BME280;2397;53.576;9.746;2023-02-28T05:41:15;103191.41;;;-0.78;100.00
4767;BME280;2397;53.576;9.746;2023-02-28T05:43:42;103193.66;;;-0.81;100.00
4767;BME280;2397;53.576;9.746;2023-02-28T05:46:10;103200.34;;;-0.82;100.00
4767;BME280;2397;53.576;9.746;2023-02-28T05:48:38;103195.13;;;-0.75;100.00
4767;BME280;2397;53.576;9.746;2023-02-28T05:51:06;103196.19;;;-0.81;100.00
4767;BME280;2397;53.576;9.746;2023-02-28T05:53:33;103207.38;;;-0.88;100.00
4767;BME280;2397;53.576;9.746;2023-02-28T05:56:00;103198.88;;;-0.80;100.00
4767;BME280;2397;53.576;9.746;2023-02-28T05:58:26;103198.13;;;-0.79;100.00
4767;BME280;2397;53.576;9.746;2023-02-28T06:00:58;103193.91;;;-0.96;100.00
4767;BME280;2397;53.576;9.746;2023-02-28T06:03:25;103204.34;;;-1.01;100.00
4767;BME280;2397;53.576;9.746;2023-02-28T06:05:51;103205.09;;;-1.02;100.00
4767;BME280;2397;53.576;9.746;2023-02-28T06:08:17;103202.84;;;-1.17;100.00
4767;BME280;2397;53.576;9.746;2023-02-28T06:10:45;103211.53;;;-1.06;100.00
4767;BME280;2397;53.576;9.746;2023-02-28T06:13:11;103204.50;;;-1.00;100.00
4767;BME280;2397;53.576;9.746;2023-02-28T06:15:39;103204.34;;;-1.01;100.00
4767;BME280;2397;53.576;9.746;2023-02-28T06:18:05;103210.66;;;-1.07;100.00
4767;BME280;2397;53.576;9.746;2023-02-28T06:20:32;103208.22;;;-1.14;100.00
4767;BME280;2397;53.576;9.746;2023-02-28T06:22:58;103208.53;;;-1.11;100.00
4767;BME280;2397;53.576;9.746;2023-02-28T06:25:26;103212.72;;;-1.02;100.00
4767;BME280;2397;53.576;9.746;2023-02-28T06:27:54;103208.84;;;-1.08;100.00
4767;BME280;2397;53.576;9.746;2023-02-28T06:30:21;103218.09;;;-0.99;100.00
4767;BME280;2397;53.576;9.746;2023-02-28T06:32:51;103212.09;;;-1.09;100.00
4767;BME280;2397;53.576;9.746;2023-02-28T06:35:18;103214.97;;;-1.06;100.00
4767;BME280;2397;53.576;9.746;2023-02-28T06:37:44;103218.38;;;-1.14;100.00
4767;BME280;2397;53.576;9.746;2023-02-28T06:40:11;103218.25;;;-1.15;100.00
4767;BME280;2397;53.576;9.746;2023-02-28T06:42:39;103228.88;;;-1.11;100.00
4767;BME280;2397;53.576;9.746;2023-02-28T06:45:06;103225.91;;;-1.07;100.00
4767;BME280;2397;53.576;9.746;2023-02-28T06:47:37;103231.91;;;-0.97;100.00
4767;BME280;2397;53.576;9.746;2023-02-28T06:50:04;103225.00;;;-0.98;100.00
4767;BME280;2397;53.576;9.746;2023-02-28T06:52:31;103226.53;;;-0.92;100.00
4767;BME280;2397;53.576;9.746;2023-02-28T06:54:58;103228.31;;;-0.91;100.00
4767;BME280;2397;53.576;9.746;2023-02-28T06:57:31;103236.22;;;-0.96;100.00
4767;BME280;2397;53.576;9.746;2023-02-28T06:59:59;103230.66;;;-1.01;100.00
4767;BME280;2397;53.576;9.746;2023-02-28T07:02:26;103223.34;;;-1.07;100.00
4767;BME280;2397;53.576;9.746;2023-02-28T07:04:52;103233.34;;;-1.08;100.00
4767;BME280;2397;53.576;9.746;2023-02-28T07:07:19;103234.72;;;-1.03;100.00
4767;BME280;2397;53.576;9.746;2023-02-28T07:09:45;103235.59;;;-1.02;100.00
4767;BME280;2397;53.576;9.746;2023-02-28T07:12:12;103236.69;;;-1.00;100.00
4767;BME280;2397;53.576;9.746;2023-02-28T07:14:38;103238.19;;;-0.85;100.00
4767;BME280;2397;53.576;9.746;2023-02-28T07:17:07;103236.72;;;-0.83;100.00
4767;BME280;2397;53.576;9.746;2023-02-28T07:19:33;103243.31;;;-0.76;100.00
4767;BME280;2397;53.576;9.746;2023-02-28T07:22:00;103245.56;;;-0.71;100.00
4767;BME280;2397;53.576;9.746;2023-02-28T07:24:27;103241.38;;;-0.61;100.00
4767;BME280;2397;53.576;9.746;2023-02-28T07:26:55;103248.28;;;-0.51;100.00
4767;BME280;2397;53.576;9.746;2023-02-28T07:29:21;103238.56;;;-0.38;100.00
4767;BME280;2397;53.576;9.746;2023-02-28T07:31:47;103243.03;;;-0.27;100.00
4767;BME280;2397;53.576;9.746;2023-02-28T07:34:16;103256.25;;;-0.22;100.00
4767;BME280;2397;53.576;9.746;2023-02-28T07:36:42;103245.00;;;-0.24;100.00
4767;BME280;2397;53.576;9.746;2023-02-28T07:39:09;103249.50;;;-0.22;100.00
4767;BME280;2397;53.576;9.746;2023-02-28T07:41:36;103248.44;;;-0.15;100.00
4767;BME280;2397;53.576;9.746;2023-02-28T07:44:12;103252.03;;;-0.13;100.00
4767;BME280;2397;53.576;9.746;2023-02-28T07:46:39;103240.34;;;-0.11;100.00
4767;BME280;2397;53.576;9.746;2023-02-28T07:49:05;103241.41;;;-0.09;100.00
4767;BME280;2397;53.576;9.746;2023-02-28T07:51:32;103236.47;;;0.02;100.00
4767;BME280;2397;53.576;9.746;2023-02-28T07:53:59;103242.72;;;0.14;100.00
4767;BME280;2397;53.576;9.746;2023-02-28T07:56:25;103246.00;;;0.22;100.00
4767;BME280;2397;53.576;9.746;2023-02-28T07:58:52;103249.13;;;0.28;100.00
4767;BME280;2397;53.576;9.746;2023-02-28T08:01:19;103238.50;;;0.32;100.00
4767;BME280;2397;53.576;9.746;2023-02-28T08:03:46;103245.69;;;0.36;100.00
4767;BME280;2397;53.576;9.746;2023-02-28T08:06:20;103241.31;;;0.44;100.00
4767;BME280;2397;53.576;9.746;2023-02-28T08:08:48;103247.25;;;0.53;100.00
4767;BME280;2397;53.576;9.746;2023-02-28T08:11:16;103249.00;;;0.72;100.00
4767;BME280;2397;53.576;9.746;2023-02-28T08:13:43;103242.28;;;1.28;100.00
4767;BME280;2397;53.576;9.746;2023-02-28T08:16:11;103241.25;;;1.83;100.00
4767;BME280;2397;53.576;9.746;2023-02-28T08:18:40;103249.88;;;2.23;100.00
4767;BME280;2397;53.576;9.746;2023-02-28T08:21:08;103244.41;;;2.58;100.00
4767;BME280;2397;53.576;9.746;2023-02-28T08:23:34;103246.72;;;2.65;100.00
4767;BME280;2397;53.576;9.746;2023-02-28T08:26:02;103248.72;;;2.59;100.00
4767;BME280;2397;53.576;9.746;2023-02-28T08:28:28;103244.94;;;2.64;100.00
4767;BME280;2397;53.576;9.746;2023-02-28T08:30:55;103249.53;;;2.58;100.00
4767;BME280;2397;53.576;9.746;2023-02-28T08:33:22;103242.88;;;2.60;100.00
4767;BME280;2397;53.576;9.746;2023-02-28T08:35:52;103247.69;;;2.46;100.00
4767;BME280;2397;53.576;9.746;2023-02-28T08:38:19;103239.25;;;2.48;100.00
4767;BME280;2397;53.576;9.746;2023-02-28T08:40:45;103241.81;;;2.48;100.00
4767;BME280;2397;53.576;9.746;2023-02-28T08:43:11;103253.25;;;2.72;100.00
4767;BME280;2397;53.576;9.746;2023-02-28T08:45:38;103246.25;;;3.00;100.00
4767;BME280;2397;53.576;9.746;2023-02-28T08:48:04;103243.22;;;3.25;100.00
4767;BME280;2397;53.576;9.746;2023-02-28T08:50:31;103246.41;;;3.43;100.00
4767;BME280;2397;53.576;9.746;2023-02-28T08:52:57;103250.66;;;3.42;100.00
4767;BME280;2397;53.576;9.746;2023-02-28T08:55:24;103247.41;;;3.45;100.00
4767;BME280;2397;53.576;9.746;2023-02-28T08:57:51;103255.50;;;3.19;100.00
4767;BME280;2397;53.576;9.746;2023-02-28T09:00:18;103254.72;;;3.09;100.00
4767;BME280;2397;53.576;9.746;2023-02-28T09:02:45;103262.16;;;3.27;100.00
4767;BME280;2397;53.576;9.746;2023-02-28T09:05:11;103259.09;;;3.41;100.00
4767;BME280;2397;53.576;9.746;2023-02-28T09:07:38;103256.78;;;3.44;100.00
4767;BME280;2397;53.576;9.746;2023-02-28T09:10:04;103255.22;;;3.46;100.00
4767;BME280;2397;53.576;9.746;2023-02-28T09:12:33;103256.00;;;3.56;100.00
4767;BME280;2397;53.576;9.746;2023-02-28T09:15:00;103266.25;;;3.66;100.00
4767;BME280;2397;53.576;9.746;2023-02-28T09:17:27;103254.94;;;3.74;100.00
4767;BME280;2397;53.576;9.746;2023-02-28T09:19:56;103257.25;;;3.81;100.00
4767;BME280;2397;53.576;9.746;2023-02-28T09:22:23;103266.25;;;3.66;100.00
4767;BME280;2397;53.576;9.746;2023-02-28T09:24:49;103272.38;;;3.68;100.00
4767;BME280;2397;53.576;9.746;2023-02-28T09:27:16;103265.84;;;3.72;100.00
4767;BME280;2397;53.576;9.746;2023-02-28T09:29:42;103269.44;;;3.63;100.00
4767;BME280;2397;53.576;9.746;2023-02-28T09:32:09;103261.75;;;3.63;100.00
4767;BME280;2397;53.576;9.746;2023-02-28T09:34:35;103263.94;;;3.59;98.10
4767;BME280;2397;53.576;9.746;2023-02-28T09:37:03;103265.09;;;3.42;97.29
4767;BME280;2397;53.576;9.746;2023-02-28T09:39:29;103271.25;;;3.33;100.00
4767;BME280;2397;53.576;9.746;2023-02-28T09:41:57;103270.22;;;3.31;99.72
4767;BME280;2397;53.576;9.746;2023-02-28T09:47:05;103269.94;;;3.28;100.00
4767;BME280;2397;53.576;9.746;2023-02-28T09:49:40;103268.56;;;3.22;99.92
4767;BME280;2397;53.576;9.746;2023-02-28T09:52:18;103271.25;;;3.23;100.00
4767;BME280;2397;53.576;9.746;2023-02-28T09:54:45;103273.06;;;3.24;98.07
4767;BME280;2397;53.576;9.746;2023-02-28T09:57:35;103278.56;;;3.29;95.99
4767;BME280;2397;53.576;9.746;2023-02-28T10:00:29;103279.56;;;3.31;94.60
4767;BME280;2397;53.576;9.746;2023-02-28T10:08:27;103280.59;;;3.43;90.21
4767;BME280;2397;53.576;9.746;2023-02-28T10:10:57;103275.31;;;3.62;89.05
4767;BME280;2397;53.576;9.746;2023-02-28T10:13:36;103265.16;;;3.84;89.84
4767;BME280;2397;53.576;9.746;2023-02-28T10:16:10;103265.13;;;4.05;89.36
4767;BME280;2397;53.576;9.746;2023-02-28T10:18:48;103268.38;;;4.25;86.66
4767;BME280;2397;53.576;9.746;2023-02-28T10:21:21;103265.78;;;4.35;82.86
4767;BME280;2397;53.576;9.746;2023-02-28T10:23:53;103267.19;;;4.42;77.50
4767;BME280;2397;53.576;9.746;2023-02-28T10:26:26;103267.34;;;4.33;77.23
4767;BME280;2397;53.576;9.746;2023-02-28T10:28:55;103256.97;;;4.31;78.46
4767;BME280;2397;53.576;9.746;2023-02-28T10:31:21;103264.00;;;4.34;78.76
4767;BME280;2397;53.576;9.746;2023-02-28T10:33:50;103265.41;;;4.63;81.01
4767;BME280;2397;53.576;9.746;2023-02-28T10:36:20;103260.50;;;4.88;80.74
4767;BME280;2397;53.576;9.746;2023-02-28T10:38:48;103258.16;;;5.13;81.14
4767;BME280;2397;53.576;9.746;2023-02-28T10:41:26;103264.13;;;5.36;80.02
4767;BME280;2397;53.576;9.746;2023-02-28T10:44:21;103261.31;;;5.33;74.52
4767;BME280;2397;53.576;9.746;2023-02-28T10:46:49;103260.34;;;5.42;73.53
4767;BME280;2397;53.576;9.746;2023-02-28T10:49:27;103259.38;;;5.52;74.54
4767;BME280;2397;53.576;9.746;2023-02-28T10:51:58;103266.50;;;5.56;74.14
4767;BME280;2397;53.576;9.746;2023-02-28T10:54:34;103252.13;;;5.58;72.24
4767;BME280;2397;53.576;9.746;2023-02-28T10:57:23;103255.09;;;5.41;73.00
4767;BME280;2397;53.576;9.746;2023-02-28T11:00:18;103253.34;;;5.63;75.12
4767;BME280;2397;53.576;9.746;2023-02-28T11:02:46;103257.38;;;5.72;72.41
4767;BME280;2397;53.576;9.746;2023-02-28T11:05:33;103253.13;;;5.84;72.93
4767;BME280;2397;53.576;9.746;2023-02-28T11:08:12;103244.25;;;6.03;71.30
4767;BME280;2397;53.576;9.746;2023-02-28T11:10:46;103251.47;;;6.20;69.47
4767;BME280;2397;53.576;9.746;2023-02-28T11:13:21;103252.94;;;6.17;68.07
4767;BME280;2397;53.576;9.746;2023-02-28T11:15:52;103245.34;;;6.18;67.06
4767;BME280;2397;53.576;9.746;2023-02-28T11:18:49;103254.13;;;6.33;64.73
4767;BME280;2397;53.576;9.746;2023-02-28T11:21:48;103255.47;;;6.40;61.43
4767;BME280;2397;53.576;9.746;2023-02-28T11:24:24;103250.72;;;6.58;62.03
4767;BME280;2397;53.576;9.746;2023-02-28T11:26:52;103254.84;;;6.68;59.51
4767;BME280;2397;53.576;9.746;2023-02-28T11:29:24;103253.03;;;6.79;59.02
4767;BME280;2397;53.576;9.746;2023-02-28T11:34:32;103248.69;;;6.91;59.46
4767;BME280;2397;53.576;9.746;2023-02-28T11:36:59;103244.81;;;7.10;58.62
4767;BME280;2397;53.576;9.746;2023-02-28T11:39:27;103241.03;;;7.04;58.13
4767;BME280;2397;53.576;9.746;2023-02-28T11:42:19;103241.03;;;7.04;55.07
4767;BME280;2397;53.576;9.746;2023-02-28T11:48:04;103221.22;;;7.42;52.83
4767;BME280;2397;53.576;9.746;2023-02-28T11:51:05;103221.84;;;7.78;54.50
4767;BME280;2397;53.576;9.746;2023-02-28T11:59:44;103218.94;;;8.14;47.31
4767;BME280;2397;53.576;9.746;2023-02-28T12:02:30;103214.56;;;8.13;47.41
4767;BME280;2397;53.576;9.746;2023-02-28T12:08:02;103204.16;;;8.66;48.29
4767;BME280;2397;53.576;9.746;2023-02-28T12:10:36;103198.16;;;8.67;47.33
4767;BME280;2397;53.576;9.746;2023-02-28T12:13:18;103198.22;;;8.97;48.12
4767;BME280;2397;53.576;9.746;2023-02-28T12:21:20;103186.59;;;9.19;46.32
4767;BME280;2397;53.576;9.746;2023-02-28T12:26:41;103170.25;;;9.49;43.80
4767;BME280;2397;53.576;9.746;2023-02-28T12:29:14;103162.22;;;9.60;42.47
4767;BME280;2397;53.576;9.746;2023-02-28T12:31:49;103160.06;;;9.67;42.79
4767;BME280;2397;53.576;9.746;2023-02-28T12:34:21;103161.47;;;9.77;42.80
4767;BME280;2397;53.576;9.746;2023-02-28T12:36:51;103156.59;;;9.98;42.58
4767;BME280;2397;53.576;9.746;2023-02-28T12:39:31;103151.44;;;10.15;41.47
4767;BME280;2397;53.576;9.746;2023-02-28T12:42:26;103153.47;;;10.20;41.50
4767;BME280;2397;53.576;9.746;2023-02-28T12:45:05;103150.56;;;10.31;40.47
4767;BME280;2397;53.576;9.746;2023-02-28T12:47:38;103148.63;;;10.60;39.29
4767;BME280;2397;53.576;9.746;2023-02-28T12:50:09;103134.72;;;10.58;40.17
4767;BME280;2397;53.576;9.746;2023-02-28T12:52:48;103138.41;;;9.97;39.74
4767;BME280;2397;53.576;9.746;2023-02-28T12:58:13;103126.97;;;10.41;40.78
4767;BME280;2397;53.576;9.746;2023-02-28T13:04:08;103110.56;;;11.28;39.83
4767;BME280;2397;53.576;9.746;2023-02-28T13:09:13;103110.72;;;11.13;37.90
4767;BME280;2397;53.576;9.746;2023-02-28T13:11:49;103118.06;;;11.39;37.04
4767;BME280;2397;53.576;9.746;2023-02-28T13:16:52;103109.09;;;11.51;35.93
4767;BME280;2397;53.576;9.746;2023-02-28T13:19:21;103107.91;;;11.62;36.17
4767;BME280;2397;53.576;9.746;2023-02-28T13:21:50;103104.13;;;11.37;35.62
4767;BME280;2397;53.576;9.746;2023-02-28T13:24:39;103093.88;;;11.58;36.68
4767;BME280;2397;53.576;9.746;2023-02-28T13:29:40;103090.72;;;11.46;36.68
4767;BME280;2397;53.576;9.746;2023-02-28T13:34:40;103091.19;;;11.75;35.46
4767;BME280;2397;53.576;9.746;2023-02-28T13:39:48;103087.03;;;11.97;34.70
4767;BME280;2397;53.576;9.746;2023-02-28T13:50:34;103092.47;;;11.65;34.44
4767;BME280;2397;53.576;9.746;2023-02-28T13:55:56;103086.22;;;12.17;34.88
4767;BME280;2397;53.576;9.746;2023-02-28T14:01:16;103080.31;;;12.02;34.75
4767;BME280;2397;53.576;9.746;2023-02-28T14:06:32;103078.81;;;11.69;34.45
4767;BME280;2397;53.576;9.746;2023-02-28T14:11:46;103093.34;;;11.66;35.28
4767;BME280;2397;53.576;9.746;2023-02-28T14:17:06;103094.22;;;11.29;36.74
4767;BME280;2397;53.576;9.746;2023-02-28T14:19:35;103097.97;;;11.17;35.58
4767;BME280;2397;53.576;9.746;2023-02-28T14:22:39;103100.78;;;11.04;36.32
4767;BME280;2397;53.576;9.746;2023-02-28T14:25:20;103097.59;;;10.92;36.64
4767;BME280;2397;53.576;9.746;2023-02-28T14:28:16;103096.72;;;10.91;37.33
4767;BME280;2397;53.576;9.746;2023-02-28T14:31:09;103106.34;;;10.77;36.32
4767;BME280;2397;53.576;9.746;2023-02-28T14:34:12;103107.13;;;10.42;37.42
4767;BME280;2397;53.576;9.746;2023-02-28T14:36:41;103103.09;;;10.30;37.42
4767;BME280;2397;53.576;9.746;2023-02-28T14:39:34;103103.59;;;9.92;38.64
4767;BME280;2397;53.576;9.746;2023-02-28T14:42:02;103104.03;;;9.68;39.11
4767;BME280;2397;53.576;9.746;2023-02-28T14:44:31;103104.16;;;9.55;38.58
4767;BME280;2397;53.576;9.746;2023-02-28T14:47:02;103096.81;;;9.31;39.95
4767;BME280;2397;53.576;9.746;2023-02-28T14:49:43;103092.59;;;9.02;40.08
4767;BME280;2397;53.576;9.746;2023-02-28T14:52:17;103104.88;;;8.91;41.16
4767;BME280;2397;53.576;9.746;2023-02-28T14:54:51;103100.72;;;8.93;41.08
4767;BME280;2397;53.576;9.746;2023-02-28T14:57:24;103105.53;;;8.87;40.79
4767;BME280;2397;53.576;9.746;2023-02-28T15:00:09;103107.09;;;9.00;40.66
4767;BME280;2397;53.576;9.746;2023-02-28T15:02:39;103094.91;;;8.82;40.17
4767;BME280;2397;53.576;9.746;2023-02-28T15:07:38;103092.97;;;8.78;41.05
4767;BME280;2397;53.576;9.746;2023-02-28T15:10:23;103090.72;;;8.69;41.82
4767;BME280;2397;53.576;9.746;2023-02-28T15:12:56;103094.00;;;8.52;42.48
4767;BME280;2397;53.576;9.746;2023-02-28T15:18:45;103097.25;;;8.21;42.33
4767;BME280;2397;53.576;9.746;2023-02-28T15:21:18;103089.75;;;8.11;42.81